createdAt,value
2019-05-15T00:00:51.915Z,40.30
2019-05-15T00:03:53.373Z,40.20
2019-05-15T00:06:54.752Z,40.20
2019-05-15T00:09:58.475Z,40.30
2019-05-15T00:12:59.275Z,40.50
2019-05-15T00:16:00.729Z,40.30
2019-05-15T00:19:02.210Z,40.60
2019-05-15T00:22:04.677Z,40.70
2019-05-15T00:25:06.355Z,41.00
2019-05-15T00:28:09.687Z,41.30
2019-05-15T00:31:11.303Z,41.80
2019-05-15T00:34:12.986Z,41.60
2019-05-15T00:37:14.405Z,42.00
2019-05-15T00:40:18.155Z,42.00
2019-05-15T00:43:19.103Z,42.60
2019-05-15T00:46:20.451Z,43.40
2019-05-15T00:49:21.844Z,42.30
2019-05-15T00:52:23.229Z,42.40
2019-05-15T00:55:24.578Z,43.50
2019-05-15T00:58:28.150Z,43.50
2019-05-15T01:01:28.973Z,43.50
2019-05-15T01:04:30.374Z,43.70
2019-05-15T01:07:31.722Z,43.80
2019-05-15T01:10:33.157Z,44.00
2019-05-15T01:13:34.531Z,44.40
2019-05-15T01:16:38.126Z,44.60
2019-05-15T01:19:38.983Z,44.50
2019-05-15T01:22:40.345Z,44.60
2019-05-15T01:25:42.825Z,44.60
2019-05-15T01:28:44.192Z,44.50
2019-05-15T01:31:48.919Z,44.50
2019-05-15T01:34:49.679Z,44.90
2019-05-15T01:37:51.027Z,45.20
2019-05-15T01:40:52.355Z,45.40
2019-05-15T01:43:53.755Z,45.30
2019-05-15T01:46:55.084Z,45.70
2019-05-15T01:49:58.305Z,45.60
2019-05-15T01:52:59.478Z,46.30
2019-05-15T01:56:00.805Z,45.80
2019-05-15T01:59:02.212Z,45.70
2019-05-15T02:02:04.627Z,45.90
2019-05-15T02:05:08.474Z,45.90
2019-05-15T02:08:09.482Z,45.70
2019-05-15T02:11:10.880Z,45.70
2019-05-15T02:14:12.230Z,45.80
2019-05-15T02:17:13.549Z,46.00
2019-05-15T02:20:15.086Z,46.10
2019-05-15T02:23:18.760Z,46.10
2019-05-15T02:26:19.502Z,46.30
2019-05-15T02:29:25.161Z,46.50
2019-05-15T02:32:23.860Z,46.70
2019-05-15T02:35:25.217Z,47.20
2019-05-15T02:38:29.547Z,47.60
2019-05-15T02:41:30.057Z,47.40
2019-05-15T02:44:31.524Z,47.60
2019-05-15T02:47:32.850Z,48.30
2019-05-15T02:50:34.141Z,48.40
2019-05-15T02:53:35.468Z,48.80
2019-05-15T02:56:39.328Z,49.30
2019-05-15T02:59:40.945Z,49.40
2019-05-15T03:02:42.304Z,49.30
2019-05-15T03:05:43.591Z,49.40
2019-05-15T03:08:45.019Z,49.50
2019-05-15T03:11:49.440Z,49.60
2019-05-15T03:14:49.777Z,49.60
2019-05-15T03:17:51.106Z,49.80
2019-05-15T03:20:52.458Z,50.40
2019-05-15T03:23:53.785Z,50.80
2019-05-15T03:26:59.025Z,51.30
2019-05-15T03:29:59.473Z,51.20
2019-05-15T03:33:09.189Z,51.20
2019-05-15T03:36:04.048Z,52.00
2019-05-15T03:39:09.519Z,52.00
2019-05-15T03:42:09.889Z,52.10
2019-05-15T03:45:11.322Z,52.50
2019-05-15T03:48:12.620Z,52.40
2019-05-15T03:51:13.909Z,52.20
2019-05-15T03:54:18.654Z,52.40
2019-05-15T03:57:23.038Z,52.40
2019-05-15T04:00:22.733Z,52.40
2019-05-15T04:03:24.047Z,52.40
2019-05-15T04:06:25.335Z,52.70
2019-05-15T04:09:29.475Z,52.80
2019-05-15T04:12:29.919Z,52.90
2019-05-15T04:15:31.230Z,53.20
2019-05-15T04:18:32.628Z,53.20
2019-05-15T04:21:33.946Z,53.10
2019-05-15T04:24:35.608Z,53.20
2019-05-15T04:27:39.065Z,53.50
2019-05-15T04:30:40.033Z,53.70
2019-05-15T04:33:41.327Z,53.90
2019-05-15T04:36:44.627Z,53.90
2019-05-15T04:39:48.938Z,54.00
2019-05-15T04:42:49.775Z,54.60
2019-05-15T04:45:51.356Z,54.40
2019-05-15T04:48:52.675Z,54.40
2019-05-15T04:51:53.971Z,54.40
2019-05-15T04:54:55.281Z,54.30
2019-05-15T04:57:59.232Z,54.50
2019-05-15T05:01:00.992Z,54.60
2019-05-15T05:04:02.336Z,55.10
2019-05-15T05:07:03.630Z,55.20
2019-05-15T05:10:05.101Z,55.00
2019-05-15T05:13:08.708Z,54.80
2019-05-15T05:16:09.877Z,54.90
2019-05-15T05:19:11.257Z,54.90
2019-05-15T05:22:12.584Z,55.10
2019-05-15T05:25:14.110Z,55.20
2019-05-15T05:28:15.417Z,55.30
2019-05-15T05:31:19.055Z,55.20
2019-05-15T05:34:19.806Z,55.30
2019-05-15T05:37:21.147Z,55.70
2019-05-15T05:40:23.844Z,55.70
2019-05-15T05:43:25.123Z,55.50
2019-05-15T05:46:28.043Z,55.90
2019-05-15T05:49:29.537Z,56.10
2019-05-15T05:52:30.847Z,56.20
2019-05-15T05:55:32.653Z,56.40
2019-05-15T05:58:33.944Z,56.50
2019-05-15T06:01:38.206Z,56.60
2019-05-15T06:04:38.535Z,56.20
2019-05-15T06:07:39.847Z,56.10
2019-05-15T06:10:41.166Z,56.30
2019-05-15T06:13:42.459Z,56.20
2019-05-15T06:16:43.776Z,55.90
2019-05-15T06:19:45.134Z,56.20
2019-05-15T06:22:47.896Z,56.20
2019-05-15T06:25:49.365Z,56.30
2019-05-15T06:28:50.673Z,56.20
2019-05-15T06:31:51.987Z,56.80
2019-05-15T06:34:53.295Z,56.20
2019-05-15T06:37:54.625Z,56.30
2019-05-15T06:40:58.209Z,56.00
2019-05-15T06:43:59.037Z,55.80
2019-05-15T06:47:01.421Z,55.70
2019-05-15T06:50:03.975Z,55.90
2019-05-15T06:53:09.956Z,55.80
2019-05-15T06:56:08.586Z,55.90
2019-05-15T06:59:09.927Z,55.70
2019-05-15T07:02:11.385Z,55.70
2019-05-15T07:05:12.701Z,54.90
2019-05-15T07:08:13.994Z,54.90
2019-05-15T07:11:18.908Z,54.60
2019-05-15T07:14:19.486Z,54.30
2019-05-15T07:17:20.884Z,54.30
2019-05-15T07:20:23.668Z,53.60
2019-05-15T07:23:27.340Z,53.60
2019-05-15T07:26:29.019Z,53.60
2019-05-15T07:29:31.459Z,53.40
2019-05-15T07:32:32.791Z,53.20
2019-05-15T07:35:34.130Z,53.10
2019-05-15T07:38:35.438Z,52.80
2019-05-15T07:41:38.966Z,52.40
2019-05-15T07:44:39.781Z,51.90
2019-05-15T07:47:41.105Z,51.80
2019-05-15T07:50:42.416Z,51.00
2019-05-15T07:53:43.757Z,50.80
2019-05-15T07:56:45.172Z,50.50
2019-05-15T07:59:48.027Z,50.00
2019-05-15T08:02:49.499Z,49.60
2019-05-15T08:05:58.829Z,49.40
2019-05-15T08:08:54.007Z,49.30
2019-05-15T08:11:55.345Z,48.10
2019-05-15T08:14:58.250Z,47.70
2019-05-15T08:18:08.479Z,46.70
2019-05-15T08:21:02.819Z,45.80
2019-05-15T08:24:04.134Z,45.90
2019-05-15T08:27:05.454Z,45.40
2019-05-15T08:30:08.964Z,45.20
2019-05-15T08:33:11.036Z,44.90
2019-05-15T08:36:12.378Z,43.80
2019-05-15T08:39:13.779Z,42.50
2019-05-15T08:42:15.157Z,41.70
2019-05-15T08:45:18.906Z,41.80
2019-05-15T08:48:19.865Z,42.50
2019-05-15T08:51:21.247Z,42.00
2019-05-15T08:54:22.670Z,41.30
2019-05-15T08:57:24.008Z,40.40
2019-05-15T09:00:25.482Z,40.30
2019-05-15T09:03:28.637Z,40.10
2019-05-15T09:06:29.958Z,39.90
2019-05-15T09:09:31.372Z,39.50
2019-05-15T09:12:32.726Z,39.30
2019-05-15T09:15:34.123Z,39.10
2019-05-15T09:18:35.529Z,38.90
2019-05-15T09:21:39.028Z,39.10
2019-05-15T09:24:40.329Z,39.20
2019-05-15T09:27:41.656Z,38.90
2019-05-15T09:30:44.080Z,38.40
2019-05-15T09:33:45.418Z,38.00
2019-05-15T09:36:48.573Z,37.30
2019-05-15T09:39:49.826Z,37.30
2019-05-15T09:42:51.185Z,37.30
2019-05-15T09:45:52.542Z,36.80
2019-05-15T09:48:53.947Z,37.00
2019-05-15T09:51:55.344Z,37.10
2019-05-15T09:54:59.144Z,37.00
2019-05-15T09:57:59.780Z,36.90
2019-05-15T10:01:01.221Z,37.30
2019-05-15T10:04:02.628Z,36.70
2019-05-15T10:07:05.110Z,36.50
2019-05-15T10:10:08.758Z,36.50
2019-05-15T10:13:10.268Z,37.00
2019-05-15T10:16:11.589Z,36.00
2019-05-15T10:19:13.076Z,36.10
2019-05-15T10:22:14.475Z,35.70
2019-05-15T10:25:18.801Z,35.40
2019-05-15T10:28:19.746Z,35.30
2019-05-15T10:31:21.107Z,35.40
2019-05-15T10:34:22.594Z,35.00
2019-05-15T10:37:23.961Z,35.10
2019-05-15T10:40:25.336Z,35.30
2019-05-15T10:43:28.786Z,34.80
2019-05-15T10:46:29.855Z,35.00
2019-05-15T10:49:31.270Z,35.00
2019-05-15T10:52:32.709Z,35.00
2019-05-15T10:55:35.166Z,34.00
2019-05-15T10:58:38.943Z,34.80
2019-05-15T11:01:39.734Z,34.50
2019-05-15T11:04:41.080Z,33.80
2019-05-15T11:07:42.469Z,34.80
2019-05-15T11:10:44.197Z,35.20
2019-05-15T11:13:45.545Z,34.20
2019-05-15T11:16:48.645Z,34.00
2019-05-15T11:19:50.131Z,34.00
2019-05-15T11:22:51.393Z,34.10
2019-05-15T11:25:52.815Z,33.60
2019-05-15T11:28:54.135Z,33.10
2019-05-15T11:31:57.897Z,32.90
2019-05-15T11:34:58.685Z,32.80
2019-05-15T11:38:00.023Z,33.10
2019-05-15T11:41:04.495Z,33.00
2019-05-15T11:44:04.534Z,33.40
2019-05-15T11:47:05.954Z,32.80
2019-05-15T11:50:08.419Z,33.10
2019-05-15T11:53:09.915Z,33.70
2019-05-15T11:56:12.267Z,33.50
2019-05-15T11:59:13.607Z,33.70
2019-05-15T12:02:14.917Z,32.90
2019-05-15T12:05:18.248Z,32.00
2019-05-15T12:08:19.767Z,32.50
2019-05-15T12:11:33.427Z,33.20
2019-05-15T12:14:24.161Z,32.60
2019-05-15T12:17:28.272Z,32.60
2019-05-15T12:20:28.770Z,32.40
2019-05-15T12:23:30.198Z,32.60
2019-05-15T12:26:31.561Z,32.30
2019-05-15T12:29:32.908Z,32.80
2019-05-15T12:38:40.397Z,32.00
2019-05-15T12:39:23.745Z,32.20
2019-05-15T13:00:00.998Z,32.40
2019-05-15T13:03:02.527Z,32.00
2019-05-15T13:06:03.872Z,31.90
2019-05-15T13:09:08.577Z,31.30
2019-05-15T13:12:09.636Z,31.90
2019-05-15T13:15:11.263Z,32.10
2019-05-15T13:18:14.417Z,32.40
2019-05-15T13:21:20.577Z,32.20
2019-05-15T13:24:19.510Z,32.50
2019-05-15T13:27:20.988Z,32.00
2019-05-15T13:30:22.500Z,32.10
2019-05-15T13:33:23.836Z,31.10
2019-05-15T13:36:25.169Z,31.30
2019-05-15T13:39:28.488Z,31.30
2019-05-15T13:42:29.622Z,31.80
2019-05-15T13:45:30.989Z,31.20
2019-05-15T13:48:32.320Z,31.80
2019-05-15T13:51:33.659Z,31.60
2019-05-15T13:54:35.072Z,31.30
2019-05-15T13:57:38.340Z,31.40
2019-05-15T14:00:39.678Z,30.30
2019-05-15T14:03:41.041Z,30.90
2019-05-15T14:06:42.383Z,30.90
2019-05-15T14:09:44.764Z,31.60
2019-05-15T14:12:47.886Z,31.50
2019-05-15T14:15:49.511Z,31.50
2019-05-15T14:18:51.907Z,30.70
2019-05-15T14:21:53.248Z,30.70
2019-05-15T14:24:54.600Z,30.90
2019-05-15T14:27:55.958Z,30.40
2019-05-15T14:30:58.614Z,30.60
2019-05-15T14:34:00.236Z,30.90
2019-05-15T14:37:01.645Z,31.70
2019-05-15T14:40:02.990Z,30.50
2019-05-15T14:43:08.561Z,30.50
2019-05-15T14:46:08.489Z,29.70
2019-05-15T14:49:09.868Z,29.60
2019-05-15T14:52:11.241Z,29.40
2019-05-15T14:55:12.947Z,29.50
2019-05-15T14:58:14.370Z,29.10
2019-05-15T15:01:15.698Z,29.40
2019-05-15T15:04:18.455Z,29.00
2019-05-15T15:07:19.916Z,28.90
2019-05-15T15:10:21.258Z,28.50
2019-05-15T15:13:22.673Z,28.40
2019-05-15T15:16:24.007Z,28.80
2019-05-15T15:19:25.328Z,28.70
2019-05-15T15:22:28.447Z,28.70
2019-05-15T15:25:30.756Z,28.30
2019-05-15T15:28:32.158Z,28.40
2019-05-15T15:31:33.502Z,28.00
2019-05-15T15:34:34.897Z,28.20
2019-05-15T15:37:38.190Z,28.30
2019-05-15T15:40:39.439Z,28.60
2019-05-15T15:43:40.867Z,28.40
2019-05-15T15:46:42.198Z,28.30
2019-05-15T15:49:43.533Z,28.20
2019-05-15T15:52:45.846Z,28.40
2019-05-15T15:55:48.962Z,28.40
2019-05-15T15:58:50.553Z,28.90
2019-05-15T16:01:51.921Z,29.20
2019-05-15T16:04:53.284Z,29.10
2019-05-15T16:07:55.801Z,29.30
2019-05-15T16:10:58.988Z,29.10
2019-05-15T16:14:01.275Z,29.30
2019-05-15T16:17:02.647Z,29.60
2019-05-15T16:20:04.141Z,30.00
2019-05-15T16:23:08.193Z,30.30
2019-05-15T16:26:09.207Z,30.20
2019-05-15T16:29:11.749Z,30.00
2019-05-15T16:32:13.376Z,30.10
2019-05-15T16:35:18.424Z,30.50
2019-05-15T16:38:19.867Z,30.20
2019-05-15T16:41:21.233Z,30.40
2019-05-15T16:44:22.704Z,30.40
2019-05-15T16:47:24.089Z,30.40
2019-05-15T16:50:25.470Z,30.20
2019-05-15T16:53:28.956Z,30.30
2019-05-15T16:56:30.014Z,30.40
2019-05-15T16:59:35.720Z,30.30
2019-05-15T17:02:34.431Z,30.30
2019-05-15T17:05:38.102Z,30.90
2019-05-15T17:08:38.889Z,30.70
2019-05-15T17:11:40.282Z,31.00
2019-05-15T17:14:41.623Z,31.30
2019-05-15T17:17:43.019Z,31.00
2019-05-15T17:20:44.437Z,30.70
2019-05-15T17:23:45.799Z,30.70
2019-05-15T17:26:48.545Z,31.00
2019-05-15T17:29:49.934Z,31.20
2019-05-15T17:32:51.321Z,31.50
2019-05-15T17:35:52.670Z,31.50
2019-05-15T17:38:54.009Z,31.40
2019-05-15T17:41:55.438Z,31.50
2019-05-15T17:44:57.915Z,31.50
2019-05-15T17:47:59.409Z,31.70
2019-05-15T17:51:00.746Z,31.80
2019-05-15T17:54:02.093Z,31.90
2019-05-15T17:57:03.598Z,32.10
2019-05-15T18:00:08.042Z,32.20
2019-05-15T18:03:08.800Z,32.30
2019-05-15T18:06:10.128Z,32.70
2019-05-15T18:09:11.697Z,32.70
2019-05-15T18:12:13.160Z,32.90
2019-05-15T18:15:14.885Z,33.10
2019-05-15T18:18:18.521Z,33.10
2019-05-15T18:21:22.103Z,32.90
2019-05-15T18:24:23.591Z,32.60
2019-05-15T18:27:25.118Z,33.00
2019-05-15T18:30:28.259Z,32.90
2019-05-15T18:33:29.755Z,33.00
2019-05-15T18:36:32.143Z,33.20
2019-05-15T18:39:33.581Z,32.90
2019-05-15T18:42:34.993Z,33.40
2019-05-15T18:45:38.325Z,33.70
2019-05-15T18:48:39.430Z,33.70
2019-05-15T18:51:41.960Z,34.00
2019-05-15T18:54:43.319Z,33.90
2019-05-15T18:57:44.954Z,34.50
2019-05-15T19:00:48.469Z,33.90
2019-05-15T19:03:49.585Z,34.00
2019-05-15T19:06:51.010Z,34.10
2019-05-15T19:09:52.419Z,34.60
2019-05-15T19:12:53.787Z,34.70
2019-05-15T19:15:55.313Z,34.90
2019-05-15T19:18:58.350Z,35.40
2019-05-15T19:21:59.799Z,36.50
2019-05-15T19:25:01.128Z,36.40
2019-05-15T19:28:02.564Z,36.70
2019-05-15T19:31:03.925Z,36.80
2019-05-15T19:34:05.227Z,36.70
2019-05-15T19:37:06.731Z,36.60
2019-05-15T19:40:09.901Z,36.80
2019-05-15T19:43:11.410Z,37.10
2019-05-15T19:46:12.813Z,37.50
2019-05-15T19:49:14.333Z,37.70
2019-05-15T19:52:17.774Z,38.00
2019-05-15T19:55:21.040Z,38.30
2019-05-15T19:58:22.179Z,38.50
2019-05-15T20:01:23.827Z,38.70
2019-05-15T20:04:25.348Z,39.30
2019-05-15T20:07:28.648Z,39.50
2019-05-15T20:10:29.861Z,40.00
2019-05-15T20:13:31.309Z,40.30
2019-05-15T20:16:32.830Z,40.40
2019-05-15T20:19:34.251Z,40.80
2019-05-15T20:22:37.511Z,41.00
2019-05-15T20:25:39.087Z,41.00
2019-05-15T20:28:40.528Z,41.50
2019-05-15T20:31:41.931Z,41.50
2019-05-15T20:34:43.378Z,41.60
2019-05-15T20:37:48.467Z,41.90
2019-05-15T20:40:49.181Z,42.00
2019-05-15T20:43:50.593Z,42.30
2019-05-15T20:46:51.904Z,42.20
2019-05-15T20:49:53.269Z,42.00
2019-05-15T20:52:54.604Z,41.90
2019-05-15T20:55:55.924Z,42.00
2019-05-15T20:58:58.325Z,41.90
2019-05-15T21:01:59.897Z,42.20
2019-05-15T21:05:01.523Z,42.20
2019-05-15T21:08:03.064Z,42.30
2019-05-15T21:11:04.487Z,42.20
2019-05-15T21:14:06.125Z,42.40
2019-05-15T21:17:08.247Z,42.30
2019-05-15T21:20:10.473Z,42.10
2019-05-15T21:23:11.786Z,42.20
2019-05-15T21:26:13.140Z,42.30
2019-05-15T21:29:15.528Z,41.90
2019-05-15T21:32:19.557Z,41.10
2019-05-15T21:35:19.924Z,40.70
2019-05-15T21:38:21.484Z,41.10
2019-05-15T21:41:23.997Z,40.40
2019-05-15T21:44:25.317Z,40.40
2019-05-15T21:47:28.023Z,40.20
2019-05-15T21:50:29.523Z,40.00
2019-05-15T21:53:30.871Z,40.10
2019-05-15T21:56:32.219Z,40.10
2019-05-15T21:59:34.805Z,40.40
2019-05-15T22:02:38.325Z,40.70
2019-05-15T22:05:40.270Z,41.00
2019-05-15T22:08:41.607Z,40.90
2019-05-15T22:11:43.179Z,40.70
2019-05-15T22:14:44.648Z,40.60
2019-05-15T22:17:49.026Z,40.70
2019-05-15T22:20:48.951Z,40.80
2019-05-15T22:23:50.316Z,41.30
2019-05-15T22:26:52.110Z,40.40
2019-05-15T22:29:53.432Z,40.20
2019-05-15T22:32:54.788Z,40.20
2019-05-15T22:35:56.125Z,39.90
2019-05-15T22:38:59.354Z,39.80
2019-05-15T22:42:00.765Z,39.90
2019-05-15T22:45:02.078Z,39.80
2019-05-15T22:48:03.454Z,39.90
2019-05-15T22:51:04.910Z,40.10
2019-05-15T22:54:08.490Z,39.90
2019-05-15T22:57:09.403Z,39.60
2019-05-15T23:00:12.629Z,39.70
2019-05-15T23:03:13.988Z,39.80
2019-05-15T23:06:17.666Z,39.90
2019-05-15T23:09:18.289Z,40.00
2019-05-15T23:12:19.590Z,40.00
2019-05-15T23:15:20.947Z,40.60
2019-05-15T23:18:22.427Z,40.60
2019-05-15T23:21:23.745Z,40.30
2019-05-15T23:24:25.051Z,40.20
2019-05-15T23:27:28.613Z,40.20
2019-05-15T23:30:29.424Z,40.40
2019-05-15T23:33:30.723Z,40.50
2019-05-15T23:36:32.057Z,40.50
2019-05-15T23:39:33.343Z,40.50
2019-05-15T23:42:34.670Z,40.50
2019-05-15T23:45:35.973Z,40.50
2019-05-15T23:48:38.205Z,40.80
2019-05-15T23:51:39.693Z,40.70
2019-05-15T23:54:40.973Z,40.90
2019-05-15T23:57:42.287Z,41.00
